<?xml version="1.0" encoding="UTF-8" standalone="no" ?>
<gpx xmlns="http://www.topografix.com/GPX/1/1" creator="www.plotaroute.com" version="1.1"  xmlns:xsi="http://www.w3.org/2001/XMLSchema-instance" xsi:schemaLocation="http://www.topografix.com/GPX/1/1 http://www.topografix.com/GPX/1/1/gpx.xsd">
<metadata>
<desc>Route created on plotaroute.com</desc>
</metadata>
<trk>
<name>Great Yarmouth to Caister On Sea Circular Walk</name>
<trkseg>
<trkpt lat="52.616305" lon="1.721848">
<ele>0</ele>
<time>2026-05-07T00:00:00Z</time></trkpt>
<trkpt lat="52.616305" lon="1.721848">
<ele>0</ele>
<time>2026-05-07T00:00:00Z</time></trkpt>
<trkpt lat="52.616844" lon="1.721917">
<ele>0</ele>
<time>2026-05-07T00:00:43Z</time></trkpt>
<trkpt lat="52.61748" lon="1.722169">
<ele>0</ele>
<time>2026-05-07T00:01:35Z</time></trkpt>
<trkpt lat="52.618319" lon="1.722348">
<ele>0</ele>
<time>2026-05-07T00:02:43Z</time></trkpt>
<trkpt lat="52.618633" lon="1.722344">
<ele>0</ele>
<time>2026-05-07T00:03:08Z</time></trkpt>
<trkpt lat="52.618718" lon="1.722385">
<ele>0</ele>
<time>2026-05-07T00:03:15Z</time></trkpt>
<trkpt lat="52.618718" lon="1.722415">
<ele>0</ele>
<time>2026-05-07T00:03:15Z</time></trkpt>
<trkpt lat="52.618973" lon="1.72242">
<ele>0</ele>
<time>2026-05-07T00:03:35Z</time></trkpt>
<trkpt lat="52.619405" lon="1.722347">
<ele>0</ele>
<time>2026-05-07T00:04:08Z</time></trkpt>
<trkpt lat="52.619687" lon="1.722377">
<ele>0</ele>
<time>2026-05-07T00:04:32Z</time></trkpt>
<trkpt lat="52.619828" lon="1.722463">
<ele>0</ele>
<time>2026-05-07T00:04:45Z</time></trkpt>
<trkpt lat="52.619935" lon="1.722606">
<ele>0</ele>
<time>2026-05-07T00:04:57Z</time></trkpt>
<trkpt lat="52.620038" lon="1.722811">
<ele>0</ele>
<time>2026-05-07T00:05:11Z</time></trkpt>
<trkpt lat="52.620038" lon="1.722811">
<ele>0</ele>
<time>2026-05-07T00:05:11Z</time></trkpt>
<trkpt lat="52.620125" lon="1.72303">
<ele>0</ele>
<time>2026-05-07T00:05:25Z</time></trkpt>
<trkpt lat="52.620284" lon="1.723617">
<ele>0</ele>
<time>2026-05-07T00:05:56Z</time></trkpt>
<trkpt lat="52.620575" lon="1.7245">
<ele>0</ele>
<time>2026-05-07T00:06:45Z</time></trkpt>
<trkpt lat="52.620931" lon="1.725188">
<ele>0</ele>
<time>2026-05-07T00:07:29Z</time></trkpt>
<trkpt lat="52.620947" lon="1.725275">
<ele>0</ele>
<time>2026-05-07T00:07:33Z</time></trkpt>
<trkpt lat="52.620943" lon="1.725507">
<ele>1</ele>
<time>2026-05-07T00:07:45Z</time></trkpt>
<trkpt lat="52.621047" lon="1.725544">
<ele>0</ele>
<time>2026-05-07T00:07:55Z</time></trkpt>
<trkpt lat="52.621279" lon="1.725949">
<ele>1</ele>
<time>2026-05-07T00:08:24Z</time></trkpt>
<trkpt lat="52.621289" lon="1.725957">
<ele>1</ele>
<time>2026-05-07T00:08:25Z</time></trkpt>
<trkpt lat="52.621289" lon="1.725957">
<ele>1</ele>
<time>2026-05-07T00:08:25Z</time></trkpt>
<trkpt lat="52.621351" lon="1.726006">
<ele>1</ele>
<time>2026-05-07T00:08:31Z</time></trkpt>
<trkpt lat="52.621889" lon="1.726366">
<ele>0</ele>
<time>2026-05-07T00:09:18Z</time></trkpt>
<trkpt lat="52.622108" lon="1.726468">
<ele>0</ele>
<time>2026-05-07T00:09:35Z</time></trkpt>
<trkpt lat="52.622501" lon="1.726606">
<ele>0</ele>
<time>2026-05-07T00:10:07Z</time></trkpt>
<trkpt lat="52.623544" lon="1.726875">
<ele>1</ele>
<time>2026-05-07T00:11:32Z</time></trkpt>
<trkpt lat="52.623544" lon="1.726875">
<ele>1</ele>
<time>2026-05-07T00:11:32Z</time></trkpt>
<trkpt lat="52.623744" lon="1.726914">
<ele>0</ele>
<time>2026-05-07T00:11:48Z</time></trkpt>
<trkpt lat="52.624163" lon="1.726908">
<ele>0</ele>
<time>2026-05-07T00:12:21Z</time></trkpt>
<trkpt lat="52.624438" lon="1.726866">
<ele>0</ele>
<time>2026-05-07T00:12:43Z</time></trkpt>
<trkpt lat="52.624732" lon="1.726787">
<ele>0</ele>
<time>2026-05-07T00:13:07Z</time></trkpt>
<trkpt lat="52.625411" lon="1.726535">
<ele>1</ele>
<time>2026-05-07T00:14:03Z</time></trkpt>
<trkpt lat="52.625411" lon="1.726534">
<ele>1</ele>
<time>2026-05-07T00:14:03Z</time></trkpt>
<trkpt lat="52.625618" lon="1.726439">
<ele>0</ele>
<time>2026-05-07T00:14:21Z</time></trkpt>
<trkpt lat="52.626158" lon="1.726221">
<ele>0</ele>
<time>2026-05-07T00:15:09Z</time></trkpt>
<trkpt lat="52.626521" lon="1.726009">
<ele>0</ele>
<time>2026-05-07T00:15:40Z</time></trkpt>
<trkpt lat="52.626724" lon="1.72586">
<ele>0</ele>
<time>2026-05-07T00:15:58Z</time></trkpt>
<trkpt lat="52.627198" lon="1.725505">
<ele>0</ele>
<time>2026-05-07T00:16:38Z</time></trkpt>
<trkpt lat="52.627302" lon="1.725344">
<ele>0</ele>
<time>2026-05-07T00:16:50Z</time></trkpt>
<trkpt lat="52.627982" lon="1.724561">
<ele>0</ele>
<time>2026-05-07T00:17:59Z</time></trkpt>
<trkpt lat="52.628736" lon="1.723546">
<ele>0</ele>
<time>2026-05-07T00:19:18Z</time></trkpt>
<trkpt lat="52.628814" lon="1.723534">
<ele>0</ele>
<time>2026-05-07T00:19:25Z</time></trkpt>
<trkpt lat="52.628954" lon="1.723312">
<ele>0</ele>
<time>2026-05-07T00:19:40Z</time></trkpt>
<trkpt lat="52.629152" lon="1.723072">
<ele>0</ele>
<time>2026-05-07T00:19:59Z</time></trkpt>
<trkpt lat="52.630157" lon="1.721871">
<ele>1</ele>
<time>2026-05-07T00:21:44Z</time></trkpt>
<trkpt lat="52.630262" lon="1.721762">
<ele>1</ele>
<time>2026-05-07T00:21:54Z</time></trkpt>
<trkpt lat="52.630366" lon="1.721605">
<ele>1</ele>
<time>2026-05-07T00:22:05Z</time></trkpt>
<trkpt lat="52.630432" lon="1.721609">
<ele>1</ele>
<time>2026-05-07T00:22:10Z</time></trkpt>
<trkpt lat="52.630544" lon="1.721581">
<ele>1</ele>
<time>2026-05-07T00:22:19Z</time></trkpt>
<trkpt lat="52.630572" lon="1.721524">
<ele>0</ele>
<time>2026-05-07T00:22:23Z</time></trkpt>
<trkpt lat="52.630638" lon="1.721422">
<ele>0</ele>
<time>2026-05-07T00:22:30Z</time></trkpt>
<trkpt lat="52.630718" lon="1.721069">
<ele>0</ele>
<time>2026-05-07T00:22:47Z</time></trkpt>
<trkpt lat="52.630954" lon="1.720366">
<ele>0</ele>
<time>2026-05-07T00:23:26Z</time></trkpt>
<trkpt lat="52.631093" lon="1.719849">
<ele>0</ele>
<time>2026-05-07T00:23:53Z</time></trkpt>
<trkpt lat="52.631093" lon="1.719849">
<ele>0</ele>
<time>2026-05-07T00:23:53Z</time></trkpt>
<trkpt lat="52.631229" lon="1.719343">
<ele>0</ele>
<time>2026-05-07T00:24:20Z</time></trkpt>
<trkpt lat="52.631376" lon="1.718915">
<ele>-1</ele>
<time>2026-05-07T00:24:44Z</time></trkpt>
<trkpt lat="52.631489" lon="1.718463">
<ele>0</ele>
<time>2026-05-07T00:25:08Z</time></trkpt>
<trkpt lat="52.631503" lon="1.718308">
<ele>0</ele>
<time>2026-05-07T00:25:15Z</time></trkpt>
<trkpt lat="52.631436" lon="1.71799">
<ele>0</ele>
<time>2026-05-07T00:25:31Z</time></trkpt>
<trkpt lat="52.631436" lon="1.717778">
<ele>0</ele>
<time>2026-05-07T00:25:31Z</time></trkpt>
<trkpt lat="52.631464" lon="1.71742">
<ele>0</ele>
<time>2026-05-07T00:25:48Z</time></trkpt>
<trkpt lat="52.6316" lon="1.716579">
<ele>-1</ele>
<time>2026-05-07T00:26:30Z</time></trkpt>
<trkpt lat="52.631631" lon="1.716316">
<ele>-1</ele>
<time>2026-05-07T00:26:43Z</time></trkpt>
<trkpt lat="52.631634" lon="1.71613">
<ele>-1</ele>
<time>2026-05-07T00:26:52Z</time></trkpt>
<trkpt lat="52.631601" lon="1.715709">
<ele>-1</ele>
<time>2026-05-07T00:27:12Z</time></trkpt>
<trkpt lat="52.631547" lon="1.714343">
<ele>-1</ele>
<time>2026-05-07T00:28:19Z</time></trkpt>
<trkpt lat="52.631452" lon="1.713557">
<ele>0</ele>
<time>2026-05-07T00:29:01Z</time></trkpt>
<trkpt lat="52.631434" lon="1.713272">
<ele>0</ele>
<time>2026-05-07T00:29:16Z</time></trkpt>
<trkpt lat="52.63139" lon="1.711689">
<ele>0</ele>
<time>2026-05-07T00:30:34Z</time></trkpt>
<trkpt lat="52.63137" lon="1.7115">
<ele>-1</ele>
<time>2026-05-07T00:30:44Z</time></trkpt>
<trkpt lat="52.631339" lon="1.7114">
<ele>-1</ele>
<time>2026-05-07T00:30:49Z</time></trkpt>
<trkpt lat="52.631469" lon="1.711235">
<ele>-1</ele>
<time>2026-05-07T00:31:02Z</time></trkpt>
<trkpt lat="52.631573" lon="1.711164">
<ele>-1</ele>
<time>2026-05-07T00:31:11Z</time></trkpt>
<trkpt lat="52.63176" lon="1.711059">
<ele>-1</ele>
<time>2026-05-07T00:31:27Z</time></trkpt>
<trkpt lat="52.632188" lon="1.710909">
<ele>-1</ele>
<time>2026-05-07T00:32:01Z</time></trkpt>
<trkpt lat="52.632839" lon="1.710641">
<ele>-1</ele>
<time>2026-05-07T00:32:55Z</time></trkpt>
<trkpt lat="52.633278" lon="1.710406">
<ele>-1</ele>
<time>2026-05-07T00:33:35Z</time></trkpt>
<trkpt lat="52.633313" lon="1.710321">
<ele>0</ele>
<time>2026-05-07T00:33:41Z</time></trkpt>
<trkpt lat="52.633346" lon="1.710069">
<ele>0</ele>
<time>2026-05-07T00:33:54Z</time></trkpt>
<trkpt lat="52.633399" lon="1.709711">
<ele>0</ele>
<time>2026-05-07T00:34:11Z</time></trkpt>
<trkpt lat="52.633591" lon="1.709156">
<ele>-1</ele>
<time>2026-05-07T00:34:41Z</time></trkpt>
<trkpt lat="52.634524" lon="1.708078">
<ele>-1</ele>
<time>2026-05-07T00:36:13Z</time></trkpt>
<trkpt lat="52.634524" lon="1.708078">
<ele>-1</ele>
<time>2026-05-07T00:36:13Z</time></trkpt>
<trkpt lat="52.634713" lon="1.707866">
<ele>-1</ele>
<time>2026-05-07T00:36:33Z</time></trkpt>
<trkpt lat="52.634936" lon="1.707618">
<ele>-1</ele>
<time>2026-05-07T00:36:56Z</time></trkpt>
<trkpt lat="52.635217" lon="1.707173">
<ele>-1</ele>
<time>2026-05-07T00:37:28Z</time></trkpt>
<trkpt lat="52.635296" lon="1.707096">
<ele>-1</ele>
<time>2026-05-07T00:37:35Z</time></trkpt>
<trkpt lat="52.635375" lon="1.707055">
<ele>-1</ele>
<time>2026-05-07T00:37:42Z</time></trkpt>
<trkpt lat="52.63558" lon="1.707036">
<ele>-1</ele>
<time>2026-05-07T00:37:57Z</time></trkpt>
<trkpt lat="52.636148" lon="1.70682">
<ele>-1</ele>
<time>2026-05-07T00:38:44Z</time></trkpt>
<trkpt lat="52.636907" lon="1.706294">
<ele>0</ele>
<time>2026-05-07T00:39:53Z</time></trkpt>
<trkpt lat="52.637774" lon="1.705577">
<ele>0</ele>
<time>2026-05-07T00:41:11Z</time></trkpt>
<trkpt lat="52.637857" lon="1.705543">
<ele>0</ele>
<time>2026-05-07T00:41:18Z</time></trkpt>
<trkpt lat="52.637945" lon="1.705587">
<ele>-1</ele>
<time>2026-05-07T00:41:25Z</time></trkpt>
<trkpt lat="52.637945" lon="1.705587">
<ele>-1</ele>
<time>2026-05-07T00:41:25Z</time></trkpt>
<trkpt lat="52.637971" lon="1.705612">
<ele>-1</ele>
<time>2026-05-07T00:41:27Z</time></trkpt>
<trkpt lat="52.638001" lon="1.705644">
<ele>-1</ele>
<time>2026-05-07T00:41:30Z</time></trkpt>
<trkpt lat="52.638125" lon="1.705696">
<ele>-1</ele>
<time>2026-05-07T00:41:41Z</time></trkpt>
<trkpt lat="52.638227" lon="1.705681">
<ele>-1</ele>
<time>2026-05-07T00:41:49Z</time></trkpt>
<trkpt lat="52.638382" lon="1.705585">
<ele>-1</ele>
<time>2026-05-07T00:42:02Z</time></trkpt>
<trkpt lat="52.638564" lon="1.705397">
<ele>-1</ele>
<time>2026-05-07T00:42:19Z</time></trkpt>
<trkpt lat="52.638884" lon="1.705228">
<ele>-1</ele>
<time>2026-05-07T00:42:46Z</time></trkpt>
<trkpt lat="52.639059" lon="1.705077">
<ele>-1</ele>
<time>2026-05-07T00:43:02Z</time></trkpt>
<trkpt lat="52.639505" lon="1.704606">
<ele>-1</ele>
<time>2026-05-07T00:43:44Z</time></trkpt>
<trkpt lat="52.639713" lon="1.704438">
<ele>-1</ele>
<time>2026-05-07T00:44:03Z</time></trkpt>
<trkpt lat="52.639943" lon="1.704335">
<ele>-1</ele>
<time>2026-05-07T00:44:22Z</time></trkpt>
<trkpt lat="52.640459" lon="1.704215">
<ele>-1</ele>
<time>2026-05-07T00:45:04Z</time></trkpt>
<trkpt lat="52.640459" lon="1.704215">
<ele>-1</ele>
<time>2026-05-07T00:45:04Z</time></trkpt>
<trkpt lat="52.640451" lon="1.704561">
<ele>-1</ele>
<time>2026-05-07T00:45:20Z</time></trkpt>
<trkpt lat="52.640254" lon="1.708">
<ele>-1</ele>
<time>2026-05-07T00:48:10Z</time></trkpt>
<trkpt lat="52.640329" lon="1.708289">
<ele>-1</ele>
<time>2026-05-07T00:48:28Z</time></trkpt>
<trkpt lat="52.640508" lon="1.708515">
<ele>0</ele>
<time>2026-05-07T00:48:49Z</time></trkpt>
<trkpt lat="52.640583" lon="1.708579">
<ele>0</ele>
<time>2026-05-07T00:48:57Z</time></trkpt>
<trkpt lat="52.640782" lon="1.708668">
<ele>2</ele>
<time>2026-05-07T00:49:16Z</time></trkpt>
<trkpt lat="52.640765" lon="1.708904">
<ele>2</ele>
<time>2026-05-07T00:49:27Z</time></trkpt>
<trkpt lat="52.640603" lon="1.710037">
<ele>1</ele>
<time>2026-05-07T00:50:24Z</time></trkpt>
<trkpt lat="52.640541" lon="1.711273">
<ele>1</ele>
<time>2026-05-07T00:51:24Z</time></trkpt>
<trkpt lat="52.64053" lon="1.712045">
<ele>0</ele>
<time>2026-05-07T00:52:00Z</time></trkpt>
<trkpt lat="52.640546" lon="1.712197">
<ele>0</ele>
<time>2026-05-07T00:52:08Z</time></trkpt>
<trkpt lat="52.640605" lon="1.712332">
<ele>0</ele>
<time>2026-05-07T00:52:16Z</time></trkpt>
<trkpt lat="52.640952" lon="1.712737">
<ele>0</ele>
<time>2026-05-07T00:52:49Z</time></trkpt>
<trkpt lat="52.641112" lon="1.712811">
<ele>0</ele>
<time>2026-05-07T00:53:03Z</time></trkpt>
<trkpt lat="52.641322" lon="1.712792">
<ele>0</ele>
<time>2026-05-07T00:53:19Z</time></trkpt>
<trkpt lat="52.641405" lon="1.712861">
<ele>0</ele>
<time>2026-05-07T00:53:27Z</time></trkpt>
<trkpt lat="52.641515" lon="1.71305">
<ele>0</ele>
<time>2026-05-07T00:53:40Z</time></trkpt>
<trkpt lat="52.641587" lon="1.713247">
<ele>0</ele>
<time>2026-05-07T00:53:51Z</time></trkpt>
<trkpt lat="52.641759" lon="1.714972">
<ele>0</ele>
<time>2026-05-07T00:55:16Z</time></trkpt>
<trkpt lat="52.641814" lon="1.715209">
<ele>0</ele>
<time>2026-05-07T00:55:28Z</time></trkpt>
<trkpt lat="52.641865" lon="1.715221">
<ele>0</ele>
<time>2026-05-07T00:55:32Z</time></trkpt>
<trkpt lat="52.641959" lon="1.71531">
<ele>0</ele>
<time>2026-05-07T00:55:41Z</time></trkpt>
<trkpt lat="52.642348" lon="1.715572">
<ele>0</ele>
<time>2026-05-07T00:56:14Z</time></trkpt>
<trkpt lat="52.642348" lon="1.715572">
<ele>0</ele>
<time>2026-05-07T00:56:14Z</time></trkpt>
<trkpt lat="52.642999" lon="1.71592">
<ele>0</ele>
<time>2026-05-07T00:57:09Z</time></trkpt>
<trkpt lat="52.643553" lon="1.716">
<ele>0</ele>
<time>2026-05-07T00:57:53Z</time></trkpt>
<trkpt lat="52.644021" lon="1.715853">
<ele>0</ele>
<time>2026-05-07T00:58:32Z</time></trkpt>
<trkpt lat="52.644232" lon="1.715748">
<ele>0</ele>
<time>2026-05-07T00:58:49Z</time></trkpt>
<trkpt lat="52.644449" lon="1.715589">
<ele>0</ele>
<time>2026-05-07T00:59:11Z</time></trkpt>
<trkpt lat="52.644569" lon="1.715458">
<ele>1</ele>
<time>2026-05-07T00:59:24Z</time></trkpt>
<trkpt lat="52.644621" lon="1.715219">
<ele>1</ele>
<time>2026-05-07T00:59:39Z</time></trkpt>
<trkpt lat="52.644667" lon="1.714369">
<ele>2</ele>
<time>2026-05-07T01:00:24Z</time></trkpt>
<trkpt lat="52.644693" lon="1.714197">
<ele>2</ele>
<time>2026-05-07T01:00:33Z</time></trkpt>
<trkpt lat="52.644745" lon="1.714034">
<ele>1</ele>
<time>2026-05-07T01:00:41Z</time></trkpt>
<trkpt lat="52.644818" lon="1.713939">
<ele>1</ele>
<time>2026-05-07T01:00:49Z</time></trkpt>
<trkpt lat="52.645268" lon="1.713534">
<ele>1</ele>
<time>2026-05-07T01:01:29Z</time></trkpt>
<trkpt lat="52.645362" lon="1.713759">
<ele>1</ele>
<time>2026-05-07T01:01:42Z</time></trkpt>
<trkpt lat="52.645876" lon="1.714382">
<ele>0</ele>
<time>2026-05-07T01:02:35Z</time></trkpt>
<trkpt lat="52.645876" lon="1.714382">
<ele>0</ele>
<time>2026-05-07T01:02:35Z</time></trkpt>
<trkpt lat="52.646029" lon="1.714546">
<ele>1</ele>
<time>2026-05-07T01:02:51Z</time></trkpt>
<trkpt lat="52.646037" lon="1.714635">
<ele>1</ele>
<time>2026-05-07T01:02:55Z</time></trkpt>
<trkpt lat="52.646095" lon="1.71472">
<ele>1</ele>
<time>2026-05-07T01:03:02Z</time></trkpt>
<trkpt lat="52.646104" lon="1.714782">
<ele>1</ele>
<time>2026-05-07T01:03:05Z</time></trkpt>
<trkpt lat="52.646055" lon="1.714897">
<ele>1</ele>
<time>2026-05-07T01:03:13Z</time></trkpt>
<trkpt lat="52.64603" lon="1.715043">
<ele>1</ele>
<time>2026-05-07T01:03:21Z</time></trkpt>
<trkpt lat="52.646067" lon="1.715062">
<ele>2</ele>
<time>2026-05-07T01:03:24Z</time></trkpt>
<trkpt lat="52.646214" lon="1.71498">
<ele>2</ele>
<time>2026-05-07T01:03:37Z</time></trkpt>
<trkpt lat="52.646232" lon="1.715027">
<ele>2</ele>
<time>2026-05-07T01:03:39Z</time></trkpt>
<trkpt lat="52.646073" lon="1.715142">
<ele>2</ele>
<time>2026-05-07T01:03:53Z</time></trkpt>
<trkpt lat="52.646171" lon="1.715504">
<ele>1</ele>
<time>2026-05-07T01:04:11Z</time></trkpt>
<trkpt lat="52.646011" lon="1.715626">
<ele>1</ele>
<time>2026-05-07T01:04:25Z</time></trkpt>
<trkpt lat="52.64602" lon="1.715671">
<ele>1</ele>
<time>2026-05-07T01:04:27Z</time></trkpt>
<trkpt lat="52.64618" lon="1.715549">
<ele>1</ele>
<time>2026-05-07T01:04:41Z</time></trkpt>
<trkpt lat="52.646304" lon="1.715561">
<ele>1</ele>
<time>2026-05-07T01:04:51Z</time></trkpt>
<trkpt lat="52.646352" lon="1.715643">
<ele>1</ele>
<time>2026-05-07T01:04:57Z</time></trkpt>
<trkpt lat="52.646355" lon="1.715764">
<ele>1</ele>
<time>2026-05-07T01:05:03Z</time></trkpt>
<trkpt lat="52.646422" lon="1.716029">
<ele>1</ele>
<time>2026-05-07T01:05:16Z</time></trkpt>
<trkpt lat="52.646442" lon="1.716344">
<ele>1</ele>
<time>2026-05-07T01:05:32Z</time></trkpt>
<trkpt lat="52.646442" lon="1.716344">
<ele>1</ele>
<time>2026-05-07T01:05:32Z</time></trkpt>
<trkpt lat="52.646529" lon="1.717249">
<ele>1</ele>
<time>2026-05-07T01:06:16Z</time></trkpt>
<trkpt lat="52.646553" lon="1.717684">
<ele>1</ele>
<time>2026-05-07T01:06:38Z</time></trkpt>
<trkpt lat="52.646429" lon="1.719156">
<ele>1</ele>
<time>2026-05-07T01:07:50Z</time></trkpt>
<trkpt lat="52.64644" lon="1.719487">
<ele>1</ele>
<time>2026-05-07T01:08:08Z</time></trkpt>
<trkpt lat="52.647182" lon="1.724121">
<ele>1</ele>
<time>2026-05-07T01:12:06Z</time></trkpt>
<trkpt lat="52.647495" lon="1.725384">
<ele>1</ele>
<time>2026-05-07T01:13:12Z</time></trkpt>
<trkpt lat="52.647845" lon="1.726217">
<ele>1</ele>
<time>2026-05-07T01:14:05Z</time></trkpt>
<trkpt lat="52.647967" lon="1.726468">
<ele>2</ele>
<time>2026-05-07T01:14:22Z</time></trkpt>
<trkpt lat="52.647921" lon="1.726552">
<ele>2</ele>
<time>2026-05-07T01:14:28Z</time></trkpt>
<trkpt lat="52.647903" lon="1.726515">
<ele>2</ele>
<time>2026-05-07T01:14:30Z</time></trkpt>
<trkpt lat="52.647903" lon="1.726515">
<ele>2</ele>
<time>2026-05-07T01:14:30Z</time></trkpt>
<trkpt lat="52.647921" lon="1.726552">
<ele>2</ele>
<time>2026-05-07T01:14:33Z</time></trkpt>
<trkpt lat="52.64796" lon="1.726663">
<ele>2</ele>
<time>2026-05-07T01:14:39Z</time></trkpt>
<trkpt lat="52.647955" lon="1.726718">
<ele>2</ele>
<time>2026-05-07T01:14:42Z</time></trkpt>
<trkpt lat="52.647876" lon="1.726964">
<ele>2</ele>
<time>2026-05-07T01:14:55Z</time></trkpt>
<trkpt lat="52.647916" lon="1.726993">
<ele>2</ele>
<time>2026-05-07T01:14:59Z</time></trkpt>
<trkpt lat="52.647802" lon="1.727353">
<ele>2</ele>
<time>2026-05-07T01:15:18Z</time></trkpt>
<trkpt lat="52.647632" lon="1.727792">
<ele>3</ele>
<time>2026-05-07T01:15:45Z</time></trkpt>
<trkpt lat="52.647686" lon="1.727988">
<ele>3</ele>
<time>2026-05-07T01:15:56Z</time></trkpt>
<trkpt lat="52.6477" lon="1.728532">
<ele>3</ele>
<time>2026-05-07T01:16:25Z</time></trkpt>
<trkpt lat="52.647682" lon="1.729454">
<ele>4</ele>
<time>2026-05-07T01:17:11Z</time></trkpt>
<trkpt lat="52.647645" lon="1.729969">
<ele>4</ele>
<time>2026-05-07T01:17:36Z</time></trkpt>
<trkpt lat="52.647305" lon="1.733002">
<ele>3</ele>
<time>2026-05-07T01:20:07Z</time></trkpt>
<trkpt lat="52.647267" lon="1.733435">
<ele>3</ele>
<time>2026-05-07T01:20:30Z</time></trkpt>
<trkpt lat="52.64744" lon="1.735372">
<ele>4</ele>
<time>2026-05-07T01:22:08Z</time></trkpt>
<trkpt lat="52.647393" lon="1.735391">
<ele>4</ele>
<time>2026-05-07T01:22:12Z</time></trkpt>
<trkpt lat="52.647383" lon="1.73542">
<ele>4</ele>
<time>2026-05-07T01:22:14Z</time></trkpt>
<trkpt lat="52.647383" lon="1.73542">
<ele>4</ele>
<time>2026-05-07T01:22:14Z</time></trkpt>
<trkpt lat="52.647352" lon="1.735511">
<ele>5</ele>
<time>2026-05-07T01:22:19Z</time></trkpt>
<trkpt lat="52.647309" lon="1.735539">
<ele>5</ele>
<time>2026-05-07T01:22:23Z</time></trkpt>
<trkpt lat="52.647242" lon="1.735519">
<ele>5</ele>
<time>2026-05-07T01:22:29Z</time></trkpt>
<trkpt lat="52.647083" lon="1.735569">
<ele>6</ele>
<time>2026-05-07T01:22:43Z</time></trkpt>
<trkpt lat="52.647098" lon="1.735732">
<ele>5</ele>
<time>2026-05-07T01:22:52Z</time></trkpt>
<trkpt lat="52.646147" lon="1.736305">
<ele>4</ele>
<time>2026-05-07T01:24:15Z</time></trkpt>
<trkpt lat="52.646043" lon="1.736301">
<ele>5</ele>
<time>2026-05-07T01:24:23Z</time></trkpt>
<trkpt lat="52.645975" lon="1.736404">
<ele>5</ele>
<time>2026-05-07T01:24:31Z</time></trkpt>
<trkpt lat="52.645828" lon="1.736505">
<ele>5</ele>
<time>2026-05-07T01:24:43Z</time></trkpt>
<trkpt lat="52.644188" lon="1.737458">
<ele>3</ele>
<time>2026-05-07T01:27:03Z</time></trkpt>
<trkpt lat="52.643762" lon="1.737567">
<ele>5</ele>
<time>2026-05-07T01:27:41Z</time></trkpt>
<trkpt lat="52.643762" lon="1.737567">
<ele>5</ele>
<time>2026-05-07T01:27:41Z</time></trkpt>
<trkpt lat="52.643098" lon="1.737737">
<ele>4</ele>
<time>2026-05-07T01:28:33Z</time></trkpt>
<trkpt lat="52.642727" lon="1.737726">
<ele>3</ele>
<time>2026-05-07T01:29:02Z</time></trkpt>
<trkpt lat="52.642297" lon="1.737626">
<ele>4</ele>
<time>2026-05-07T01:29:37Z</time></trkpt>
<trkpt lat="52.64202" lon="1.737657">
<ele>4</ele>
<time>2026-05-07T01:29:59Z</time></trkpt>
<trkpt lat="52.641493" lon="1.737839">
<ele>4</ele>
<time>2026-05-07T01:30:42Z</time></trkpt>
<trkpt lat="52.640671" lon="1.738013">
<ele>4</ele>
<time>2026-05-07T01:31:49Z</time></trkpt>
<trkpt lat="52.640197" lon="1.738182">
<ele>4</ele>
<time>2026-05-07T01:32:27Z</time></trkpt>
<trkpt lat="52.638947" lon="1.738508">
<ele>5</ele>
<time>2026-05-07T01:34:14Z</time></trkpt>
<trkpt lat="52.638739" lon="1.738569">
<ele>5</ele>
<time>2026-05-07T01:34:31Z</time></trkpt>
<trkpt lat="52.638376" lon="1.738772">
<ele>5</ele>
<time>2026-05-07T01:35:02Z</time></trkpt>
<trkpt lat="52.638015" lon="1.738713">
<ele>5</ele>
<time>2026-05-07T01:35:30Z</time></trkpt>
<trkpt lat="52.637442" lon="1.739042">
<ele>4</ele>
<time>2026-05-07T01:36:17Z</time></trkpt>
<trkpt lat="52.636472" lon="1.739203">
<ele>4</ele>
<time>2026-05-07T01:37:37Z</time></trkpt>
<trkpt lat="52.636262" lon="1.738942">
<ele>6</ele>
<time>2026-05-07T01:38:02Z</time></trkpt>
<trkpt lat="52.636226" lon="1.738944">
<ele>6</ele>
<time>2026-05-07T01:38:05Z</time></trkpt>
<trkpt lat="52.635785" lon="1.738993">
<ele>6</ele>
<time>2026-05-07T01:38:46Z</time></trkpt>
<trkpt lat="52.635794" lon="1.739158">
<ele>5</ele>
<time>2026-05-07T01:38:54Z</time></trkpt>
<trkpt lat="52.635459" lon="1.739199">
<ele>6</ele>
<time>2026-05-07T01:39:20Z</time></trkpt>
<trkpt lat="52.634828" lon="1.739344">
<ele>5</ele>
<time>2026-05-07T01:40:12Z</time></trkpt>
<trkpt lat="52.634828" lon="1.739344">
<ele>5</ele>
<time>2026-05-07T01:40:12Z</time></trkpt>
<trkpt lat="52.634159" lon="1.739439">
<ele>6</ele>
<time>2026-05-07T01:41:09Z</time></trkpt>
<trkpt lat="52.633624" lon="1.73954">
<ele>4</ele>
<time>2026-05-07T01:41:51Z</time></trkpt>
<trkpt lat="52.633195" lon="1.739523">
<ele>5</ele>
<time>2026-05-07T01:42:24Z</time></trkpt>
<trkpt lat="52.633077" lon="1.7396">
<ele>4</ele>
<time>2026-05-07T01:42:34Z</time></trkpt>
<trkpt lat="52.632835" lon="1.739634">
<ele>4</ele>
<time>2026-05-07T01:42:53Z</time></trkpt>
<trkpt lat="52.632719" lon="1.739639">
<ele>4</ele>
<time>2026-05-07T01:43:02Z</time></trkpt>
<trkpt lat="52.63268" lon="1.739614">
<ele>4</ele>
<time>2026-05-07T01:43:05Z</time></trkpt>
<trkpt lat="52.631563" lon="1.73957">
<ele>5</ele>
<time>2026-05-07T01:44:34Z</time></trkpt>
<trkpt lat="52.630935" lon="1.739534">
<ele>4</ele>
<time>2026-05-07T01:45:25Z</time></trkpt>
<trkpt lat="52.629984" lon="1.739461">
<ele>4</ele>
<time>2026-05-07T01:46:41Z</time></trkpt>
<trkpt lat="52.628379" lon="1.739201">
<ele>4</ele>
<time>2026-05-07T01:48:52Z</time></trkpt>
<trkpt lat="52.627489" lon="1.739038">
<ele>4</ele>
<time>2026-05-07T01:50:06Z</time></trkpt>
<trkpt lat="52.627035" lon="1.738987">
<ele>4</ele>
<time>2026-05-07T01:50:42Z</time></trkpt>
<trkpt lat="52.625416" lon="1.738708">
<ele>4</ele>
<time>2026-05-07T01:52:52Z</time></trkpt>
<trkpt lat="52.625302" lon="1.738649">
<ele>4</ele>
<time>2026-05-07T01:53:01Z</time></trkpt>
<trkpt lat="52.625221" lon="1.738575">
<ele>4</ele>
<time>2026-05-07T01:53:09Z</time></trkpt>
<trkpt lat="52.625221" lon="1.738575">
<ele>4</ele>
<time>2026-05-07T01:53:09Z</time></trkpt>
<trkpt lat="52.625069" lon="1.738438">
<ele>4</ele>
<time>2026-05-07T01:53:23Z</time></trkpt>
<trkpt lat="52.624942" lon="1.73837">
<ele>4</ele>
<time>2026-05-07T01:53:33Z</time></trkpt>
<trkpt lat="52.624418" lon="1.738344">
<ele>5</ele>
<time>2026-05-07T01:54:15Z</time></trkpt>
<trkpt lat="52.624418" lon="1.738265">
<ele>5</ele>
<time>2026-05-07T01:54:15Z</time></trkpt>
<trkpt lat="52.62286" lon="1.738219">
<ele>4</ele>
<time>2026-05-07T01:56:22Z</time></trkpt>
<trkpt lat="52.622683" lon="1.738155">
<ele>5</ele>
<time>2026-05-07T01:56:37Z</time></trkpt>
<trkpt lat="52.618116" lon="1.738023">
<ele>4</ele>
<time>2026-05-07T02:02:43Z</time></trkpt>
<trkpt lat="52.618116" lon="1.737964">
<ele>4</ele>
<time>2026-05-07T02:02:43Z</time></trkpt>
<trkpt lat="52.618116" lon="1.737964">
<ele>4</ele>
<time>2026-05-07T02:02:43Z</time></trkpt>
<trkpt lat="52.618127" lon="1.735303">
<ele>4</ele>
<time>2026-05-07T02:04:52Z</time></trkpt>
<trkpt lat="52.618153" lon="1.734359">
<ele>4</ele>
<time>2026-05-07T02:05:42Z</time></trkpt>
<trkpt lat="52.618189" lon="1.7338">
<ele>4</ele>
<time>2026-05-07T02:06:09Z</time></trkpt>
<trkpt lat="52.618534" lon="1.728677">
<ele>1</ele>
<time>2026-05-07T02:10:14Z</time></trkpt>
<trkpt lat="52.618534" lon="1.728677">
<ele>1</ele>
<time>2026-05-07T02:10:14Z</time></trkpt>
<trkpt lat="52.618541" lon="1.728595">
<ele>1</ele>
<time>2026-05-07T02:10:18Z</time></trkpt>
<trkpt lat="52.619004" lon="1.728464">
<ele>1</ele>
<time>2026-05-07T02:10:56Z</time></trkpt>
<trkpt lat="52.619183" lon="1.728389">
<ele>1</ele>
<time>2026-05-07T02:11:11Z</time></trkpt>
<trkpt lat="52.619945" lon="1.728006">
<ele>1</ele>
<time>2026-05-07T02:12:14Z</time></trkpt>
<trkpt lat="52.620074" lon="1.727908">
<ele>1</ele>
<time>2026-05-07T02:12:26Z</time></trkpt>
<trkpt lat="52.620268" lon="1.72776">
<ele>1</ele>
<time>2026-05-07T02:12:43Z</time></trkpt>
<trkpt lat="52.620325" lon="1.727585">
<ele>1</ele>
<time>2026-05-07T02:12:52Z</time></trkpt>
<trkpt lat="52.620353" lon="1.727421">
<ele>1</ele>
<time>2026-05-07T02:13:01Z</time></trkpt>
<trkpt lat="52.620377" lon="1.727343">
<ele>1</ele>
<time>2026-05-07T02:13:05Z</time></trkpt>
<trkpt lat="52.620377" lon="1.727343">
<ele>1</ele>
<time>2026-05-07T02:13:05Z</time></trkpt>
<trkpt lat="52.620866" lon="1.726014">
<ele>1</ele>
<time>2026-05-07T02:14:20Z</time></trkpt>
<trkpt lat="52.620891" lon="1.725884">
<ele>1</ele>
<time>2026-05-07T02:14:27Z</time></trkpt>
<trkpt lat="52.620932" lon="1.725578">
<ele>1</ele>
<time>2026-05-07T02:14:42Z</time></trkpt>
<trkpt lat="52.620898" lon="1.72556">
<ele>1</ele>
<time>2026-05-07T02:14:44Z</time></trkpt>
<trkpt lat="52.620898" lon="1.725559">
<ele>1</ele>
<time>2026-05-07T02:14:44Z</time></trkpt>
<trkpt lat="52.620932" lon="1.725578">
<ele>1</ele>
<time>2026-05-07T02:14:47Z</time></trkpt>
<trkpt lat="52.620943" lon="1.725507">
<ele>1</ele>
<time>2026-05-07T02:14:51Z</time></trkpt>
<trkpt lat="52.620947" lon="1.725275">
<ele>0</ele>
<time>2026-05-07T02:15:01Z</time></trkpt>
<trkpt lat="52.620931" lon="1.725188">
<ele>0</ele>
<time>2026-05-07T02:15:06Z</time></trkpt>
<trkpt lat="52.620575" lon="1.7245">
<ele>0</ele>
<time>2026-05-07T02:15:49Z</time></trkpt>
<trkpt lat="52.620284" lon="1.723617">
<ele>0</ele>
<time>2026-05-07T02:16:38Z</time></trkpt>
<trkpt lat="52.620125" lon="1.72303">
<ele>0</ele>
<time>2026-05-07T02:17:09Z</time></trkpt>
<trkpt lat="52.62004" lon="1.722814">
<ele>0</ele>
<time>2026-05-07T02:17:22Z</time></trkpt>
<trkpt lat="52.619935" lon="1.722606">
<ele>0</ele>
<time>2026-05-07T02:17:35Z</time></trkpt>
<trkpt lat="52.619828" lon="1.722463">
<ele>0</ele>
<time>2026-05-07T02:17:46Z</time></trkpt>
<trkpt lat="52.619687" lon="1.722377">
<ele>0</ele>
<time>2026-05-07T02:17:58Z</time></trkpt>
<trkpt lat="52.619405" lon="1.722347">
<ele>0</ele>
<time>2026-05-07T02:18:20Z</time></trkpt>
<trkpt lat="52.618973" lon="1.72242">
<ele>0</ele>
<time>2026-05-07T02:18:55Z</time></trkpt>
<trkpt lat="52.618367" lon="1.722417">
<ele>0</ele>
<time>2026-05-07T02:19:44Z</time></trkpt>
<trkpt lat="52.618052" lon="1.722389">
<ele>0</ele>
<time>2026-05-07T02:20:09Z</time></trkpt>
<trkpt lat="52.617458" lon="1.722262">
<ele>0</ele>
<time>2026-05-07T02:20:58Z</time></trkpt>
<trkpt lat="52.61677" lon="1.721999">
<ele>1</ele>
<time>2026-05-07T02:21:59Z</time></trkpt>
</trkseg>
</trk>
</gpx>